New Castle, Colorado
Current Conditions -  °F | °C
As of 10:53 AM on Thursday 27 Nov 2014 (Local Time) from KRIL Reporting Station
Clear Clear  
Wind Chill: 34°   Ceiling: Unl
Heat Index: 34°   Visibility: 10mi
Dew Point: 26°   Wind: 0mph
Humidity: 73%   Direction: NA
Pressure: 30.47"   Gusts: NA
Location:  39.57°N, 107.54°W
Report Text: KRIL 271753Z AUTO 00000KT 10SM CLR 01/M03 A3047 RMK AO2 SLP344 I6000 T00111033 10011 21061 58010
Loading
Personal Weather Stations






























Interactive Weather Map New forecast layout! Learn more

10-Day Weather Forecast

Advertisements
Track Severe Weather on mobile